Create Custom Reports and Graphics: Custom Report

Lodi West

11 Stations

Daily Data | America/Los_Angeles
as of 1/26/20 5:06 AM PST
Station Date Daily Max Temp (°F) Max Temp Time Daily Min Temp (°F) Min Temp Time Dew Pt (°F) Max RH (%) Min RH (%) Wind Spd (mph) Daily Max Wind (mph) Max Wind Time Max Wind Dir (°) Daily Rain (In) Seasonal Rainfall (In) Daily ETo (in) Daily Solar Rad (Cal/cm2) Powdery Mildew Stress (pts)
Claussen 1/25/20 60.8   7.2 1521 43.6   4.2 0617 51.3   1.2 100   0 82   19 1.8   0.9 10.0   2.7 0949 SE | 135 0.00 3.84 0.027   0.041 130   147 0   0
Clarksburg (CLK) 1/25/20 57.8   7.7 1531 43.8   1.6 0714 51.8   2.3 100   0 86   22 2.9   0.2 12.1   2.8 2300 S | 169 0.00 3.86 0.025   0.033 135   116 0   0
Courtland-C3 1/25/20 56.8   8.9 1459 44.5   3.6 0612 50.4   1.1 100   0 88   20 2.7   0.5 11.2   0.9 2319 SSE | 153 0.06 5.23 - - 0   0
Elk Grove-CK (EGW) 1/14/20 55.0   1.2 1502 38.9   1.2 2347 38.4   1.5 91   1 43   7 5.5   0.7 16.5   2.4 1033 WSW | 253 0.03 4.92 0.052   0.007 252   25 0   0
Guard Rd (Lodi WSW) 1/25/20 58.7   8.7 1528 44.7   4.7 0635 50.9   1.8 100   0 81   25 1.7   0.6 8.4   1.5 0904 SE | 139 0.03 4.86 0.024   0.042 111   171 0   0
Gorter - Wilson 1/25/20 57.8   9.2 1537 45.0   2.0 0701 51.2   1.4 100   0 89   23 2.9   0.0 11.2   0.2 2339 SSE | 147 0.05 4.85 0.025   0.036 118   132 0   0
Hood (HOD) 1/25/20 59.6   6.5 1529 44.6   2.1 0622 51.6   1.9 100   0 81   17 2.4   0.0 10.7   1.6 2322 S | 170 0.09 6.37 0.024   0.028 117   107 0   0
Pacific Fruit 1/25/20 59.7   9.0 1455 45.3   3.4 0620 51.8   1.6 100   0 85   24 2.6   0.2 9.1   0.1 2328 SSE | 149 0.07 5.61 0.026   0.028 130   103 0   0
Ryer Island South (RIS) 1/25/20 57.9   9.9 1444 43.9   1.9 0700 52.0   1.1 99   0 92   29 2.4   0.3 8.7   1.2 1446 ESE | 117 0.03 5.60 0.026   0.034 141   116 0   0
Utter - Wilson 1/25/20 58.7   7.2 1421 44.6   1.1 0716 51.7   1.6 100   0 87   18 3.1   0.4 13.3   3.5 2322 S | 170 0.08 6.36 0.030   0.027 139   104 0   0
Clarksburg-3A2 1/25/20 58.4   9.4 1531 43.2   1.1 0647 51.4   1.5 100   0 85   25 3.1   0.2 12.1   2.9 2356 SE | 145 0.04 5.69 0.027   0.031 134   108 0   0
Max   60.8 - 45.3 - 52.0 100 92 3.1 13.3 - - 0.09 - 0.030 141 0
Avg   - - - - 51.4 - - 2.6 - - - - - - - -
Min   56.8 - 43.2 - 50.4 99 81 1.7 8.4 - - 0.00 - 0.024 111 0

Lodi Central

Yesterday's Observations

Daily Data | America/Los_Angeles
as of 1/26/20 5:06 AM PST
Station Date Daily Max Temp (°F) Max Temp Time Daily Min Temp (°F) Min Temp Time Dew Pt (°F) Max RH (%) Min RH (%) Wind Spd (mph) Daily Max Wind (mph) Max Wind Time Max Wind Dir (°) Daily Rain (In) Seasonal Rainfall (In) Daily ETo (in) Daily Solar Rad (Cal/cm2) Powdery Mildew Stress (pts)
Galt West (GAW) 1/25/20 58.0   8.2 1514 46.2   3.5 0516 50.5   1.4 99   0 82   20 2.2   0.2 9.8   0.0 2339 SSE | 166 0.03 6.01 0.023   0.037 105   145 0   0
Valley Oak 1/25/20 58.2   8.1 1531 45.7   4.6 0523 50.5   2.1 99   0 79   22 1.8   0.1 7.9   2.9 0936 ESE | 120 0.02 5.06 0.023   0.039 110   146 0   0
Thornton 1/25/20 56.9   9.7 1535 46.4   4.6 0537 49.1   1.1 92   1 83   20 1.6   0.1 8.8   1.7 2348 S | 176 0.02 4.27 0.013   0.039 36   164 0   0
Kost Rd 1/25/20 58.5   7.9 1538 46.2   4.8 0526 51.5   1.5 100   0 87   22 1.9   0.1 7.4   1.3 0936 SSE | 159 0.01 5.09 0.021   0.037 101   142 0   0
DeVries Road-North 1/25/20 57.7   8.3 1534 46.3   4.8 0447 50.7   1.6 100   0 86   22 2.1   0.0 7.8   1.8 1212 SW | 215 0.01 5.14 0.022   0.036 106   142 0   0
Lodi (LangeTwins) 1/25/20 57.9   8.1 1539 47.0   5.3 0501 51.0   1.4 100   0 86   20 1.7   0.4 9.5   1.4 0955 SSE | 158 0.02 5.97 0.022   0.033 104   138 0   0
Acampo (ACP) 1/25/20 58.6   8.0 1539 48.2   6.1 0312 50.8   2.0 100   0 76   20 1.5   0.0 8.4   1.3 0945 SE | 134 0.00 5.94 0.026   0.037 118   145 0   0
Lodi West (MDW) 1/25/20 58.3   7.7 1530 46.1   4.1 0513 51.0   1.8 100   0 81   22 1.4   0.5 8.1   1.5 0958 ESE | 103 0.01 4.86 0.022   0.041 102   171 0   0
Max   58.6 - 48.2 - 51.5 100 87 2.2 9.8 - - 0.03 - 0.026 118 0
Avg   - - - - 50.6 - - 1.8 - - - - - - - -
Min   56.9 - 45.7 - 49.1 92 76 1.4 7.4 - - 0.00 - 0.013 36 0

Lodi South

19 Stations

Daily Data
as of 1/26/20 5:06 AM PST
Station Date Daily Max Temp (°F) Max Temp Time Daily Min Temp (°F) Min Temp Time Dew Pt (°F) Max RH (%) Min RH (%) Wind Spd (mph) Daily Max Wind (mph) Max Wind Time Daily Rain (In) Seasonal Rainfall (In) Daily ETo (in) Daily Solar Rad (Cal/cm2) Powdery Mildew Stress (pts)
Borden Hills 1/25/20 60.6   9.3 1551 48.4   4.3 0757 52.8   1.3 100   0 84   29 3.0   0.5 12.5   1.6 1042 0.00 5.40 0.031   0.038 156   120 0   0
Clay Station (CLA) 12/17/19 57.8   1.8 1412 36.2   6.4 0347 35.8   1.6 96   2 28   30 1.7   0.2 9.8   0.5 1423 0.00 2.95 0.018   0.022 132   105 0   0
Collegeville (COL) 1/25/20 60.4   7.4 1504 46.8   5.6 0140 51.4   2.5 100   0 77   21 2.2   0.1 10.7   1.1 1019 0.01 6.11 0.027   0.039 126   143 0   0
Galt-East (EGT) 1/25/20 57.8   8.6 1548 47.2   5.4 0701 51.3   1.7 100   0 88   27 1.9   0.0 9.9   0.7 1039 0.00 5.31 0.024   0.035 117   135 0   0
Escalon (ESL) 1/25/20 62.8   6.3 1509 46.1   2.9 0331 50.5   1.4 100   0 69   17 1.4   0.3 9.4   2.8 1010 0.00 5.15 - - 0   0
Victor - N (Katusha) 1/25/20 57.9   9.1 1541 46.9   5.5 0827 50.9   2.5 100   0 81   27 2.1   0.6 9.8   2.0 0951 0.01 4.18 - - 0   0
Gilbeau Ranch 1/24/20 66.6   8.1 1352 42.0   0.7 0723 49.1   0.8 100   0 55   17 1.6   0.6 8.6   1.3 1223 0.00 5.08 0.058   0.029 246   124 0   0
Lodi 8/31/19 96.7   5.8 1613 51.4   1.3 0616 54.1   2.2 - - 1.1   0.8 8.3   0.3 1242 0.00 0.00 0.185   0.012 560   3 0   10
Linden (LIN) 1/25/20 59.6   7.1 1533 47.4   5.9 0735 50.8   2.0 - - 2.0   0.0 10.6   0.1 1005 0.00 5.80 - - 0   0
Live Oak (LIV) 1/25/20 60.5   5.5 1534 47.4   6.0 0321 51.3   0.7 - - 1.8   1.1 11.0   0.3 1003 0.00 5.69 0.022   0.037 100   154 0   0
Lockeford (LOC) 1/25/20 58.1   8.2 1548 47.0   5.2 0739 - - - 2.0   0.0 13.0   3.4 1017 0.00 4.97 0.058   0.025 110   143 0   0
Lone Oak-L28 1/25/20 58.8   7.3 1543 43.7   4.8 0351 49.6   1.6 100   0 81   19 2.8   0.6 12.2   2.1 1025 0.01 5.72 0.003   0.009 0   0 0   0
Colony 1 1/25/20 63.4   11.5 1525 45.5   4.9 0500 51.8   1.0 100   0 84   31 2.2   0.3 9.1   0.7 2215 0.00 5.87 0.025   0.048 118   164 0   0
Colony 2 1/25/20 63.1   13.0 1522 45.7   4.4 0500 51.6   1.2 100   0 83   37 2.5   0.4 9.2   1.1 2201 0.00 5.52 0.023   0.042 108   140 0   0
Sheldon (SHL) 1/25/20 57.0   9.3 1522 47.1   4.4 0507 50.8   1.4 100   0 84   32 2.4   0.0 9.5   1.0 2352 0.01 5.91 0.025   0.039 112   142 0   0
Sierra Loma-L27 1/25/20 58.3   9.1 1443 46.9   3.2 0744 51.6   1.2 100   0 86   28 3.1   0.6 12.2   1.1 1034 0.00 5.47 - - 0   0
Simmerhorn (SIM) 1/25/20 56.9   8.6 1547 46.5   3.9 0716 51.0   1.9 - - - - - - - - - 0   0
Sloughhouse (SLH) 1/25/20 58.3   9.5 1524 47.8   6.3 0906 35.0   0.4 50   0 50   0 0.5   0.1 12.1   3.4 1032 0.00 6.41 0.029   0.004 103   19 0   0
5 Wells 1/25/20 58.1   8.5 1543 47.1   4.1 0748 51.1   1.6 - - 3.0   0.6 9.7   1.8 0946 0.01 4.94 0.017   0.028 67   84 0   0
Max   63.4 - 48.4 - 52.8 100 88 3.1 13.0 - 0.01 - 0.058 156 0
Avg   - - - - 50.1 - - 2.2 - - - - - - -
Min   56.9 - 43.7 - 35.0 50 50 0.5 9.1 - 0.00 - 0.003 0 0